sensor_id;sensor_type;location;lat;lon;timestamp;pressure;altitude;pressure_sealevel;temperature;humidity
11499;BME280;5806;48.748;9.278;2023-12-14T00:01:31;100003.53;;;8.33;100.00
11499;BME280;5806;48.748;9.278;2023-12-14T00:03:59;100008.30;;;8.40;100.00
11499;BME280;5806;48.748;9.278;2023-12-14T00:06:31;100020.84;;;8.41;100.00
11499;BME280;5806;48.748;9.278;2023-12-14T00:08:58;100024.09;;;8.40;100.00
11499;BME280;5806;48.748;9.278;2023-12-14T00:11:28;100017.33;;;8.43;100.00
11499;BME280;5806;48.748;9.278;2023-12-14T00:13:56;100028.22;;;8.43;100.00
11499;BME280;5806;48.748;9.278;2023-12-14T00:16:24;100036.98;;;8.31;100.00
11499;BME280;5806;48.748;9.278;2023-12-14T00:18:51;100037.16;;;8.38;100.00
11499;BME280;5806;48.748;9.278;2023-12-14T00:21:19;100036.36;;;8.40;100.00
11499;BME280;5806;48.748;9.278;2023-12-14T00:23:48;100038.99;;;8.35;100.00
11499;BME280;5806;48.748;9.278;2023-12-14T00:26:16;100039.52;;;8.35;100.00
11499;BME280;5806;48.748;9.278;2023-12-14T00:28:43;100049.41;;;8.38;100.00
11499;BME280;5806;48.748;9.278;2023-12-14T00:31:13;100049.17;;;8.40;100.00
11499;BME280;5806;48.748;9.278;2023-12-14T00:33:40;100051.25;;;8.35;100.00
11499;BME280;5806;48.748;9.278;2023-12-14T00:36:08;100057.03;;;8.39;100.00
11499;BME280;5806;48.748;9.278;2023-12-14T00:38:36;100063.84;;;8.39;100.00
11499;BME280;5806;48.748;9.278;2023-12-14T00:41:05;100065.03;;;8.29;100.00
11499;BME280;5806;48.748;9.278;2023-12-14T00:43:33;100067.16;;;8.27;100.00
11499;BME280;5806;48.748;9.278;2023-12-14T00:46:00;100070.77;;;8.30;100.00
11499;BME280;5806;48.748;9.278;2023-12-14T00:48:29;100076.41;;;8.26;100.00
11499;BME280;5806;48.748;9.278;2023-12-14T00:51:03;100083.35;;;8.33;100.00
11499;BME280;5806;48.748;9.278;2023-12-14T00:53:30;100082.73;;;8.29;100.00
11499;BME280;5806;48.748;9.278;2023-12-14T00:55:58;100089.92;;;8.35;100.00
11499;BME280;5806;48.748;9.278;2023-12-14T00:58:26;100098.09;;;8.35;100.00
11499;BME280;5806;48.748;9.278;2023-12-14T01:00:55;100100.63;;;8.39;100.00
11499;BME280;5806;48.748;9.278;2023-12-14T01:03:25;100100.48;;;8.45;100.00
11499;BME280;5806;48.748;9.278;2023-12-14T01:05:52;100112.27;;;8.48;100.00
11499;BME280;5806;48.748;9.278;2023-12-14T01:08:25;100112.74;;;8.45;100.00
11499;BME280;5806;48.748;9.278;2023-12-14T01:10:52;100120.11;;;8.45;100.00
11499;BME280;5806;48.748;9.278;2023-12-14T01:13:23;100123.72;;;8.48;100.00
11499;BME280;5806;48.748;9.278;2023-12-14T01:15:50;100122.73;;;8.54;100.00
11499;BME280;5806;48.748;9.278;2023-12-14T01:18:17;100124.54;;;8.62;100.00
11499;BME280;5806;48.748;9.278;2023-12-14T01:20:54;100134.63;;;8.48;100.00
11499;BME280;5806;48.748;9.278;2023-12-14T01:23:19;100135.69;;;8.61;100.00
11499;BME280;5806;48.748;9.278;2023-12-14T01:25:46;100142.78;;;8.62;100.00
11499;BME280;5806;48.748;9.278;2023-12-14T01:28:19;100148.64;;;8.68;100.00
11499;BME280;5806;48.748;9.278;2023-12-14T01:30:45;100153.02;;;8.69;100.00
11499;BME280;5806;48.748;9.278;2023-12-14T01:33:14;100154.53;;;8.62;100.00
11499;BME280;5806;48.748;9.278;2023-12-14T01:35:42;100162.20;;;8.65;100.00
11499;BME280;5806;48.748;9.278;2023-12-14T01:38:09;100166.64;;;8.69;100.00
11499;BME280;5806;48.748;9.278;2023-12-14T01:40:37;100168.53;;;8.68;100.00
11499;BME280;5806;48.748;9.278;2023-12-14T01:43:08;100171.50;;;8.67;100.00
11499;BME280;5806;48.748;9.278;2023-12-14T01:45:40;100168.97;;;8.63;100.00
11499;BME280;5806;48.748;9.278;2023-12-14T01:48:08;100171.41;;;8.62;100.00
11499;BME280;5806;48.748;9.278;2023-12-14T01:50:35;100178.55;;;8.65;100.00
11499;BME280;5806;48.748;9.278;2023-12-14T01:53:03;100180.98;;;8.64;100.00
11499;BME280;5806;48.748;9.278;2023-12-14T01:55:37;100186.68;;;8.63;100.00
11499;BME280;5806;48.748;9.278;2023-12-14T01:58:01;100192.83;;;8.70;100.00
11499;BME280;5806;48.748;9.278;2023-12-14T02:00:37;100201.91;;;8.61;100.00
11499;BME280;5806;48.748;9.278;2023-12-14T02:03:07;100204.34;;;8.72;100.00
11499;BME280;5806;48.748;9.278;2023-12-14T02:05:35;100212.15;;;8.68;100.00
11499;BME280;5806;48.748;9.278;2023-12-14T02:08:04;100215.81;;;8.74;100.00
11499;BME280;5806;48.748;9.278;2023-12-14T02:10:31;100215.33;;;8.77;100.00
11499;BME280;5806;48.748;9.278;2023-12-14T02:13:00;100219.02;;;8.71;100.00
11499;BME280;5806;48.748;9.278;2023-12-14T02:15:28;100225.11;;;8.75;100.00
11499;BME280;5806;48.748;9.278;2023-12-14T02:17:55;100221.17;;;8.69;100.00
11499;BME280;5806;48.748;9.278;2023-12-14T02:20:23;100234.84;;;8.71;100.00
11499;BME280;5806;48.748;9.278;2023-12-14T02:22:54;100245.03;;;8.76;100.00
11499;BME280;5806;48.748;9.278;2023-12-14T02:25:26;100251.20;;;8.71;100.00
11499;BME280;5806;48.748;9.278;2023-12-14T02:27:55;100251.49;;;8.72;100.00
11499;BME280;5806;48.748;9.278;2023-12-14T02:33:12;100254.41;;;8.68;100.00
11499;BME280;5806;48.748;9.278;2023-12-14T02:35:40;100262.63;;;8.71;100.00
11499;BME280;5806;48.748;9.278;2023-12-14T02:38:15;100268.45;;;8.74;100.00
11499;BME280;5806;48.748;9.278;2023-12-14T02:40:46;100274.66;;;8.72;100.00
11499;BME280;5806;48.748;9.278;2023-12-14T02:43:12;100276.63;;;8.74;100.00
11499;BME280;5806;48.748;9.278;2023-12-14T02:45:44;100279.31;;;8.72;100.00
11499;BME280;5806;48.748;9.278;2023-12-14T02:48:12;100276.97;;;8.78;100.00
11499;BME280;5806;48.748;9.278;2023-12-14T02:50:41;100290.41;;;8.82;100.00
11499;BME280;5806;48.748;9.278;2023-12-14T02:53:15;100290.03;;;8.76;100.00
11499;BME280;5806;48.748;9.278;2023-12-14T02:55:43;100297.23;;;8.82;100.00
11499;BME280;5806;48.748;9.278;2023-12-14T02:58:12;100302.78;;;8.87;100.00
11499;BME280;5806;48.748;9.278;2023-12-14T03:00:40;100302.39;;;8.81;100.00
11499;BME280;5806;48.748;9.278;2023-12-14T03:03:07;100306.06;;;8.86;100.00
11499;BME280;5806;48.748;9.278;2023-12-14T03:05:35;100307.33;;;8.70;100.00
11499;BME280;5806;48.748;9.278;2023-12-14T03:08:11;100312.73;;;8.67;100.00
11499;BME280;5806;48.748;9.278;2023-12-14T03:10:39;100312.97;;;8.66;100.00
11499;BME280;5806;48.748;9.278;2023-12-14T03:13:11;100315.27;;;8.71;100.00
11499;BME280;5806;48.748;9.278;2023-12-14T03:15:36;100325.70;;;8.74;100.00
11499;BME280;5806;48.748;9.278;2023-12-14T03:18:05;100326.65;;;8.68;100.00
11499;BME280;5806;48.748;9.278;2023-12-14T03:20:33;100330.34;;;8.51;100.00
11499;BME280;5806;48.748;9.278;2023-12-14T03:23:01;100333.13;;;8.65;100.00
11499;BME280;5806;48.748;9.278;2023-12-14T03:25:28;100339.34;;;8.74;100.00
11499;BME280;5806;48.748;9.278;2023-12-14T03:27:56;100339.16;;;8.78;100.00
11499;BME280;5806;48.748;9.278;2023-12-14T03:30:25;100344.56;;;8.76;100.00
11499;BME280;5806;48.748;9.278;2023-12-14T03:32:53;100347.47;;;8.72;100.00
11499;BME280;5806;48.748;9.278;2023-12-14T03:35:21;100344.55;;;8.64;100.00
11499;BME280;5806;48.748;9.278;2023-12-14T03:37:48;100355.17;;;8.63;100.00
11499;BME280;5806;48.748;9.278;2023-12-14T03:40:16;100361.45;;;8.52;100.00
11499;BME280;5806;48.748;9.278;2023-12-14T03:42:45;100374.48;;;8.39;100.00
11499;BME280;5806;48.748;9.278;2023-12-14T03:45:13;100378.27;;;8.49;100.00
11499;BME280;5806;48.748;9.278;2023-12-14T03:47:41;100376.74;;;8.30;100.00
11499;BME280;5806;48.748;9.278;2023-12-14T03:50:14;100385.23;;;8.54;100.00
11499;BME280;5806;48.748;9.278;2023-12-14T03:52:43;100390.30;;;8.51;100.00
11499;BME280;5806;48.748;9.278;2023-12-14T03:55:11;100386.71;;;8.48;100.00
11499;BME280;5806;48.748;9.278;2023-12-14T03:57:43;100392.67;;;8.59;100.00
11499;BME280;5806;48.748;9.278;2023-12-14T04:00:11;100395.98;;;8.49;100.00
11499;BME280;5806;48.748;9.278;2023-12-14T04:02:40;100402.63;;;8.42;100.00
11499;BME280;5806;48.748;9.278;2023-12-14T04:05:08;100408.02;;;8.51;100.00
11499;BME280;5806;48.748;9.278;2023-12-14T04:07:40;100416.55;;;8.43;100.00
11499;BME280;5806;48.748;9.278;2023-12-14T04:10:11;100427.15;;;8.30;100.00
11499;BME280;5806;48.748;9.278;2023-12-14T04:12:40;100434.20;;;8.40;100.00
11499;BME280;5806;48.748;9.278;2023-12-14T04:15:14;100442.02;;;8.37;100.00
11499;BME280;5806;48.748;9.278;2023-12-14T04:17:38;100445.33;;;8.39;100.00
11499;BME280;5806;48.748;9.278;2023-12-14T04:20:10;100451.73;;;8.33;100.00
11499;BME280;5806;48.748;9.278;2023-12-14T04:22:45;100456.91;;;8.23;100.00
11499;BME280;5806;48.748;9.278;2023-12-14T04:25:17;100454.11;;;8.29;100.00
11499;BME280;5806;48.748;9.278;2023-12-14T04:27:45;100458.04;;;8.24;100.00
11499;BME280;5806;48.748;9.278;2023-12-14T04:30:14;100466.59;;;8.28;100.00
11499;BME280;5806;48.748;9.278;2023-12-14T04:32:42;100472.11;;;8.30;100.00
11499;BME280;5806;48.748;9.278;2023-12-14T04:35:09;100478.77;;;8.16;100.00
11499;BME280;5806;48.748;9.278;2023-12-14T04:37:37;100483.80;;;8.10;100.00
11499;BME280;5806;48.748;9.278;2023-12-14T04:40:05;100487.01;;;8.19;100.00
11499;BME280;5806;48.748;9.278;2023-12-14T04:42:34;100487.85;;;8.19;100.00
11499;BME280;5806;48.748;9.278;2023-12-14T04:45:02;100495.31;;;8.21;100.00
11499;BME280;5806;48.748;9.278;2023-12-14T04:47:29;100495.59;;;8.22;100.00
11499;BME280;5806;48.748;9.278;2023-12-14T04:50:00;100499.47;;;8.06;100.00
11499;BME280;5806;48.748;9.278;2023-12-14T04:52:28;100507.54;;;8.12;100.00
11499;BME280;5806;48.748;9.278;2023-12-14T04:54:55;100504.69;;;8.07;100.00
11499;BME280;5806;48.748;9.278;2023-12-14T04:57:24;100508.38;;;8.13;100.00
11499;BME280;5806;48.748;9.278;2023-12-14T04:59:52;100507.05;;;8.04;100.00
11499;BME280;5806;48.748;9.278;2023-12-14T05:02:20;100512.89;;;7.98;100.00
11499;BME280;5806;48.748;9.278;2023-12-14T05:04:49;100519.47;;;8.20;100.00
11499;BME280;5806;48.748;9.278;2023-12-14T05:07:23;100524.73;;;8.22;100.00
11499;BME280;5806;48.748;9.278;2023-12-14T05:09:54;100536.83;;;8.17;100.00
11499;BME280;5806;48.748;9.278;2023-12-14T05:14:59;100546.77;;;8.02;100.00
11499;BME280;5806;48.748;9.278;2023-12-14T05:17:30;100552.81;;;8.13;100.00
11499;BME280;5806;48.748;9.278;2023-12-14T05:25:33;100562.89;;;8.04;100.00
11499;BME280;5806;48.748;9.278;2023-12-14T05:28:02;100560.47;;;7.87;100.00
11499;BME280;5806;48.748;9.278;2023-12-14T05:30:30;100564.65;;;7.89;100.00
11499;BME280;5806;48.748;9.278;2023-12-14T05:32:58;100568.09;;;7.96;100.00
11499;BME280;5806;48.748;9.278;2023-12-14T05:35:25;100574.08;;;8.05;100.00
11499;BME280;5806;48.748;9.278;2023-12-14T05:37:53;100573.71;;;8.01;100.00
11499;BME280;5806;48.748;9.278;2023-12-14T05:40:20;100575.23;;;7.97;100.00
11499;BME280;5806;48.748;9.278;2023-12-14T05:42:47;100585.44;;;7.93;100.00
11499;BME280;5806;48.748;9.278;2023-12-14T05:45:15;100582.48;;;7.94;100.00
11499;BME280;5806;48.748;9.278;2023-12-14T05:47:44;100586.94;;;7.98;100.00
11499;BME280;5806;48.748;9.278;2023-12-14T05:50:12;100589.38;;;7.88;100.00
11499;BME280;5806;48.748;9.278;2023-12-14T05:52:39;100593.91;;;7.85;100.00
11499;BME280;5806;48.748;9.278;2023-12-14T05:55:09;100596.19;;;7.88;100.00
11499;BME280;5806;48.748;9.278;2023-12-14T05:57:37;100601.77;;;7.75;100.00
11499;BME280;5806;48.748;9.278;2023-12-14T06:00:05;100606.16;;;7.85;100.00
11499;BME280;5806;48.748;9.278;2023-12-14T06:02:33;100609.66;;;7.92;100.00
11499;BME280;5806;48.748;9.278;2023-12-14T06:05:03;100618.41;;;7.94;100.00
11499;BME280;5806;48.748;9.278;2023-12-14T06:07:30;100615.84;;;7.81;100.00
11499;BME280;5806;48.748;9.278;2023-12-14T06:09:58;100623.09;;;7.87;99.71
11499;BME280;5806;48.748;9.278;2023-12-14T06:12:27;100631.95;;;7.82;100.00
11499;BME280;5806;48.748;9.278;2023-12-14T06:14:54;100639.91;;;7.84;100.00
11499;BME280;5806;48.748;9.278;2023-12-14T06:17:22;100643.08;;;7.81;100.00
11499;BME280;5806;48.748;9.278;2023-12-14T06:19:49;100653.05;;;7.87;100.00
11499;BME280;5806;48.748;9.278;2023-12-14T06:22:17;100647.45;;;7.73;100.00
11499;BME280;5806;48.748;9.278;2023-12-14T06:24:44;100656.06;;;7.70;100.00
11499;BME280;5806;48.748;9.278;2023-12-14T06:27:12;100668.61;;;7.71;100.00
11499;BME280;5806;48.748;9.278;2023-12-14T06:29:40;100666.06;;;7.67;100.00
11499;BME280;5806;48.748;9.278;2023-12-14T06:32:07;100674.60;;;7.79;100.00
11499;BME280;5806;48.748;9.278;2023-12-14T06:34:34;100679.35;;;7.75;100.00
11499;BME280;5806;48.748;9.278;2023-12-14T06:37:02;100687.37;;;7.70;100.00
11499;BME280;5806;48.748;9.278;2023-12-14T06:39:29;100690.72;;;7.81;100.00
11499;BME280;5806;48.748;9.278;2023-12-14T06:41:57;100691.71;;;7.86;100.00
11499;BME280;5806;48.748;9.278;2023-12-14T06:44:24;100701.98;;;7.84;100.00
11499;BME280;5806;48.748;9.278;2023-12-14T06:46:54;100706.58;;;7.75;100.00
11499;BME280;5806;48.748;9.278;2023-12-14T06:49:22;100714.50;;;7.58;100.00
11499;BME280;5806;48.748;9.278;2023-12-14T06:51:49;100725.18;;;7.69;100.00
11499;BME280;5806;48.748;9.278;2023-12-14T06:54:17;100734.86;;;7.74;100.00
11499;BME280;5806;48.748;9.278;2023-12-14T06:56:45;100738.50;;;7.68;100.00
11499;BME280;5806;48.748;9.278;2023-12-14T06:59:12;100751.54;;;7.59;100.00
11499;BME280;5806;48.748;9.278;2023-12-14T07:01:40;100752.72;;;7.79;100.00
11499;BME280;5806;48.748;9.278;2023-12-14T07:04:08;100756.64;;;7.74;100.00
11499;BME280;5806;48.748;9.278;2023-12-14T07:06:36;100764.00;;;7.73;100.00
11499;BME280;5806;48.748;9.278;2023-12-14T07:09:03;100766.75;;;7.91;99.47
11499;BME280;5806;48.748;9.278;2023-12-14T07:11:31;100774.22;;;7.87;99.49
11499;BME280;5806;48.748;9.278;2023-12-14T07:13:59;100778.56;;;7.70;100.00
11499;BME280;5806;48.748;9.278;2023-12-14T07:16:26;100785.13;;;7.62;100.00
11499;BME280;5806;48.748;9.278;2023-12-14T07:18:53;100788.09;;;7.70;100.00
11499;BME280;5806;48.748;9.278;2023-12-14T07:21:21;100790.05;;;7.63;100.00
11499;BME280;5806;48.748;9.278;2023-12-14T07:23:48;100792.66;;;7.60;100.00
11499;BME280;5806;48.748;9.278;2023-12-14T07:26:16;100802.63;;;7.73;99.90
11499;BME280;5806;48.748;9.278;2023-12-14T07:28:43;100809.87;;;7.70;99.12
11499;BME280;5806;48.748;9.278;2023-12-14T07:31:11;100814.85;;;7.64;100.00
11499;BME280;5806;48.748;9.278;2023-12-14T07:33:38;100812.50;;;7.43;100.00
11499;BME280;5806;48.748;9.278;2023-12-14T07:36:06;100817.22;;;7.54;100.00
11499;BME280;5806;48.748;9.278;2023-12-14T07:38:33;100816.87;;;7.44;100.00
11499;BME280;5806;48.748;9.278;2023-12-14T07:41:01;100825.52;;;7.50;100.00
11499;BME280;5806;48.748;9.278;2023-12-14T07:43:29;100826.19;;;7.45;100.00
11499;BME280;5806;48.748;9.278;2023-12-14T07:45:57;100826.52;;;7.55;100.00
11499;BME280;5806;48.748;9.278;2023-12-14T07:48:25;100839.75;;;7.52;100.00
11499;BME280;5806;48.748;9.278;2023-12-14T07:50:54;100832.66;;;7.44;100.00
11499;BME280;5806;48.748;9.278;2023-12-14T07:53:21;100840.44;;;7.41;100.00
11499;BME280;5806;48.748;9.278;2023-12-14T07:55:49;100844.09;;;7.44;100.00
11499;BME280;5806;48.748;9.278;2023-12-14T07:58:16;100849.57;;;7.53;100.00
11499;BME280;5806;48.748;9.278;2023-12-14T08:00:44;100858.08;;;7.47;100.00
11499;BME280;5806;48.748;9.278;2023-12-14T08:03:11;100864.84;;;7.38;100.00
11499;BME280;5806;48.748;9.278;2023-12-14T08:05:38;100878.11;;;7.44;100.00
11499;BME280;5806;48.748;9.278;2023-12-14T08:08:06;100875.52;;;7.40;100.00
11499;BME280;5806;48.748;9.278;2023-12-14T08:10:33;100882.02;;;7.54;100.00
11499;BME280;5806;48.748;9.278;2023-12-14T08:13:01;100896.55;;;7.57;100.00
11499;BME280;5806;48.748;9.278;2023-12-14T08:15:28;100897.20;;;7.53;100.00
11499;BME280;5806;48.748;9.278;2023-12-14T08:17:56;100905.70;;;7.69;100.00
11499;BME280;5806;48.748;9.278;2023-12-14T08:20:23;100909.41;;;7.75;100.00
11499;BME280;5806;48.748;9.278;2023-12-14T08:22:51;100922.67;;;7.65;100.00
11499;BME280;5806;48.748;9.278;2023-12-14T08:25:18;100919.48;;;7.59;100.00
11499;BME280;5806;48.748;9.278;2023-12-14T08:27:46;100930.92;;;7.52;100.00
11499;BME280;5806;48.748;9.278;2023-12-14T08:30:13;100923.44;;;7.56;100.00
11499;BME280;5806;48.748;9.278;2023-12-14T08:32:41;100930.50;;;7.48;100.00
11499;BME280;5806;48.748;9.278;2023-12-14T08:35:09;100937.80;;;7.32;100.00
11499;BME280;5806;48.748;9.278;2023-12-14T08:37:36;100948.01;;;7.43;100.00
11499;BME280;5806;48.748;9.278;2023-12-14T08:40:05;100951.20;;;7.56;100.00
11499;BME280;5806;48.748;9.278;2023-12-14T08:42:33;100951.69;;;7.62;100.00
11499;BME280;5806;48.748;9.278;2023-12-14T08:45:01;100950.82;;;7.46;100.00
11499;BME280;5806;48.748;9.278;2023-12-14T08:47:29;100951.37;;;7.45;100.00
11499;BME280;5806;48.748;9.278;2023-12-14T08:49:56;100963.28;;;7.44;100.00
11499;BME280;5806;48.748;9.278;2023-12-14T08:52:24;100969.45;;;7.49;100.00
11499;BME280;5806;48.748;9.278;2023-12-14T08:54:51;100970.50;;;7.48;100.00
11499;BME280;5806;48.748;9.278;2023-12-14T08:57:18;100971.32;;;7.55;99.78
11499;BME280;5806;48.748;9.278;2023-12-14T08:59:46;100981.84;;;7.38;100.00
11499;BME280;5806;48.748;9.278;2023-12-14T09:02:13;100986.56;;;7.62;99.88
11499;BME280;5806;48.748;9.278;2023-12-14T09:04:43;100989.68;;;7.44;99.11
11499;BME280;5806;48.748;9.278;2023-12-14T09:07:10;101002.38;;;7.56;98.76
11499;BME280;5806;48.748;9.278;2023-12-14T09:09:37;101004.43;;;7.67;97.71
11499;BME280;5806;48.748;9.278;2023-12-14T09:12:05;101003.05;;;7.52;97.36
11499;BME280;5806;48.748;9.278;2023-12-14T09:14:33;101015.20;;;7.49;98.97
11499;BME280;5806;48.748;9.278;2023-12-14T09:17:00;101019.73;;;7.40;99.29
11499;BME280;5806;48.748;9.278;2023-12-14T09:19:29;101022.16;;;7.26;100.00
11499;BME280;5806;48.748;9.278;2023-12-14T09:21:58;101036.98;;;7.36;99.01
11499;BME280;5806;48.748;9.278;2023-12-14T09:24:26;101038.56;;;7.41;100.00
11499;BME280;5806;48.748;9.278;2023-12-14T09:26:54;101037.46;;;7.27;100.00
11499;BME280;5806;48.748;9.278;2023-12-14T09:29:21;101036.36;;;7.41;99.96
11499;BME280;5806;48.748;9.278;2023-12-14T09:31:48;101047.52;;;7.48;99.15
11499;BME280;5806;48.748;9.278;2023-12-14T09:34:16;101051.84;;;7.47;98.30
11499;BME280;5806;48.748;9.278;2023-12-14T09:36:46;101062.21;;;7.41;99.77
11499;BME280;5806;48.748;9.278;2023-12-14T09:39:13;101062.33;;;7.37;99.55
11499;BME280;5806;48.748;9.278;2023-12-14T09:41:42;101066.20;;;7.38;100.00
11499;BME280;5806;48.748;9.278;2023-12-14T09:44:09;101071.50;;;7.49;99.10
11499;BME280;5806;48.748;9.278;2023-12-14T09:46:37;101075.53;;;7.33;99.92
11499;BME280;5806;48.748;9.278;2023-12-14T09:49:07;101077.82;;;7.30;99.95
11499;BME280;5806;48.748;9.278;2023-12-14T09:51:35;101081.91;;;7.30;99.47
11499;BME280;5806;48.748;9.278;2023-12-14T09:54:02;101089.02;;;7.24;100.00
11499;BME280;5806;48.748;9.278;2023-12-14T09:56:30;101082.16;;;7.09;100.00
11499;BME280;5806;48.748;9.278;2023-12-14T09:58:57;101085.76;;;7.38;100.00
11499;BME280;5806;48.748;9.278;2023-12-14T10:01:27;101088.50;;;7.31;99.24
11499;BME280;5806;48.748;9.278;2023-12-14T10:04:12;101093.21;;;7.20;100.00
11499;BME280;5806;48.748;9.278;2023-12-14T10:06:41;101091.45;;;7.17;100.00
11499;BME280;5806;48.748;9.278;2023-12-14T10:09:09;101098.99;;;7.21;100.00
11499;BME280;5806;48.748;9.278;2023-12-14T10:11:42;101109.22;;;7.26;100.00
11499;BME280;5806;48.748;9.278;2023-12-14T10:14:20;101109.55;;;7.14;100.00
11499;BME280;5806;48.748;9.278;2023-12-14T10:16:49;101111.65;;;7.18;100.00
11499;BME280;5806;48.748;9.278;2023-12-14T10:19:20;101112.58;;;7.28;100.00
11499;BME280;5806;48.748;9.278;2023-12-14T10:21:49;101116.02;;;7.26;100.00
11499;BME280;5806;48.748;9.278;2023-12-14T10:24:17;101119.17;;;7.10;100.00
11499;BME280;5806;48.748;9.278;2023-12-14T10:26:46;101129.53;;;7.23;98.67
11499;BME280;5806;48.748;9.278;2023-12-14T10:29:15;101130.48;;;7.26;98.88
11499;BME280;5806;48.748;9.278;2023-12-14T10:31:43;101141.58;;;7.12;99.47
11499;BME280;5806;48.748;9.278;2023-12-14T10:34:11;101133.22;;;7.00;100.00
11499;BME280;5806;48.748;9.278;2023-12-14T10:36:41;101134.34;;;7.08;99.68
11499;BME280;5806;48.748;9.278;2023-12-14T10:39:12;101145.97;;;7.13;99.15
11499;BME280;5806;48.748;9.278;2023-12-14T10:41:45;101154.33;;;7.05;100.00
11499;BME280;5806;48.748;9.278;2023-12-14T10:44:14;101159.77;;;7.18;99.83
11499;BME280;5806;48.748;9.278;2023-12-14T10:46:42;101158.42;;;7.31;98.88
11499;BME280;5806;48.748;9.278;2023-12-14T10:49:10;101168.23;;;7.12;99.25
11499;BME280;5806;48.748;9.278;2023-12-14T10:51:38;101178.81;;;7.05;99.63
11499;BME280;5806;48.748;9.278;2023-12-14T10:54:07;101176.42;;;7.19;98.98
11499;BME280;5806;48.748;9.278;2023-12-14T10:56:35;101181.83;;;6.99;99.88
11499;BME280;5806;48.748;9.278;2023-12-14T10:59:03;101183.20;;;7.06;100.00
11499;BME280;5806;48.748;9.278;2023-12-14T11:01:33;101182.88;;;7.24;98.75
11499;BME280;5806;48.748;9.278;2023-12-14T11:04:02;101189.37;;;7.23;98.90
11499;BME280;5806;48.748;9.278;2023-12-14T11:06:31;101189.07;;;7.22;98.65
11499;BME280;5806;48.748;9.278;2023-12-14T11:09:07;101194.31;;;7.24;98.06
11499;BME280;5806;48.748;9.278;2023-12-14T11:11:55;101203.49;;;7.10;98.73
11499;BME280;5806;48.748;9.278;2023-12-14T11:14:15;101195.12;;;7.24;97.23
11499;BME280;5806;48.748;9.278;2023-12-14T11:16:44;101197.03;;;7.11;98.81
11499;BME280;5806;48.748;9.278;2023-12-14T11:19:23;101197.33;;;6.99;98.25
11499;BME280;5806;48.748;9.278;2023-12-14T11:24:36;101201.22;;;7.20;96.96
11499;BME280;5806;48.748;9.278;2023-12-14T11:27:07;101209.06;;;7.19;98.82
11499;BME280;5806;48.748;9.278;2023-12-14T11:29:37;101215.32;;;7.06;98.40
11499;BME280;5806;48.748;9.278;2023-12-14T11:32:06;101219.95;;;7.25;97.98
11499;BME280;5806;48.748;9.278;2023-12-14T11:34:34;101222.98;;;7.13;98.34
11499;BME280;5806;48.748;9.278;2023-12-14T11:37:01;101219.71;;;7.14;99.28
11499;BME280;5806;48.748;9.278;2023-12-14T11:39:31;101224.53;;;7.12;99.36
11499;BME280;5806;48.748;9.278;2023-12-14T11:42:05;101224.94;;;7.09;98.99
11499;BME280;5806;48.748;9.278;2023-12-14T11:44:41;101227.16;;;7.09;98.55
11499;BME280;5806;48.748;9.278;2023-12-14T11:47:08;101232.59;;;7.09;99.01
11499;BME280;5806;48.748;9.278;2023-12-14T11:49:36;101238.69;;;7.31;96.87
11499;BME280;5806;48.748;9.278;2023-12-14T11:52:03;101233.86;;;7.13;98.10
11499;BME280;5806;48.748;9.278;2023-12-14T11:54:31;101249.42;;;7.09;98.40
11499;BME280;5806;48.748;9.278;2023-12-14T11:57:00;101246.09;;;7.07;98.41
11499;BME280;5806;48.748;9.278;2023-12-14T11:59:31;101251.23;;;7.19;98.70
11499;BME280;5806;48.748;9.278;2023-12-14T12:02:00;101256.12;;;7.06;98.73
11499;BME280;5806;48.748;9.278;2023-12-14T12:04:29;101263.72;;;6.94;99.33
11499;BME280;5806;48.748;9.278;2023-12-14T12:07:06;101262.79;;;6.91;99.50
11499;BME280;5806;48.748;9.278;2023-12-14T12:09:43;101263.22;;;7.01;97.50
11499;BME280;5806;48.748;9.278;2023-12-14T12:12:11;101265.44;;;7.08;97.96
11499;BME280;5806;48.748;9.278;2023-12-14T12:14:40;101266.05;;;7.10;98.29
11499;BME280;5806;48.748;9.278;2023-12-14T12:17:08;101268.67;;;7.14;97.62
11499;BME280;5806;48.748;9.278;2023-12-14T12:19:37;101263.63;;;6.98;99.01
11499;BME280;5806;48.748;9.278;2023-12-14T12:22:04;101261.34;;;6.95;99.44
11499;BME280;5806;48.748;9.278;2023-12-14T12:24:32;101270.11;;;6.97;100.00
11499;BME280;5806;48.748;9.278;2023-12-14T12:26:59;101267.41;;;7.10;99.40
11499;BME280;5806;48.748;9.278;2023-12-14T12:29:27;101259.30;;;7.23;97.26
11499;BME280;5806;48.748;9.278;2023-12-14T12:31:54;101264.58;;;7.01;97.51
11499;BME280;5806;48.748;9.278;2023-12-14T12:34:21;101262.79;;;6.91;98.78
11499;BME280;5806;48.748;9.278;2023-12-14T12:36:49;101253.27;;;6.91;98.27
11499;BME280;5806;48.748;9.278;2023-12-14T12:39:17;101262.45;;;6.90;98.77
11499;BME280;5806;48.748;9.278;2023-12-14T12:41:44;101270.33;;;7.02;97.28
11499;BME280;5806;48.748;9.278;2023-12-14T12:44:12;101265.70;;;6.89;100.00
11499;BME280;5806;48.748;9.278;2023-12-14T12:46:39;101272.03;;;7.09;99.24
11499;BME280;5806;48.748;9.278;2023-12-14T12:49:07;101279.89;;;7.15;97.58
11499;BME280;5806;48.748;9.278;2023-12-14T12:51:35;101278.84;;;7.16;96.38
11499;BME280;5806;48.748;9.278;2023-12-14T12:54:02;101275.94;;;7.37;96.36
11499;BME280;5806;48.748;9.278;2023-12-14T12:56:30;101274.66;;;7.13;96.58
11499;BME280;5806;48.748;9.278;2023-12-14T12:58:57;101278.00;;;7.28;94.43
11499;BME280;5806;48.748;9.278;2023-12-14T13:01:25;101279.70;;;7.29;94.82
11499;BME280;5806;48.748;9.278;2023-12-14T13:03:54;101296.50;;;7.03;95.66
11499;BME280;5806;48.748;9.278;2023-12-14T13:06:25;101295.05;;;7.07;96.05
11499;BME280;5806;48.748;9.278;2023-12-14T13:08:53;101299.75;;;7.15;95.97
11499;BME280;5806;48.748;9.278;2023-12-14T13:11:21;101312.09;;;7.11;97.24
11499;BME280;5806;48.748;9.278;2023-12-14T13:13:48;101313.37;;;7.22;96.72
11499;BME280;5806;48.748;9.278;2023-12-14T13:16:16;101315.34;;;7.04;96.60
11499;BME280;5806;48.748;9.278;2023-12-14T13:18:43;101318.15;;;7.00;95.74
11499;BME280;5806;48.748;9.278;2023-12-14T13:21:12;101320.38;;;7.20;95.92
11499;BME280;5806;48.748;9.278;2023-12-14T13:23:39;101323.52;;;7.11;96.72